Cachoeira do Sul, Brazil
Current Conditions -  °F | °C
As of 1:00 PM on Thursday 30 Oct 2014 (Local Time) from SBSM Reporting Station
Thunderstorm Thunderstorm  
Wind Chill: 64°   Ceiling: 7000
Heat Index: 64°   Visibility: 3mi
Dew Point: 63°   Wind: 3mph
Humidity: 94%   Direction: 20°NNE
Pressure: 29.91"   Gusts: NA
Location:  30.04°S, 52.89°W
Report Text: SBSM 301500Z 02003KT 340V060 5000 -TSRA FEW008 FEW030CB OVC070 18/17 Q1013 RERA
Loading
Personal Weather Stations






























Interactive Weather Map
Tropical Storm Tracking
New forecast layout! Learn more

10-Day Weather Forecast

Advertisements
Track Severe Weather on mobile